sensor_id;sensor_type;location;lat;lon;timestamp;temperature;humidity
26304;DHT22;70693;48.680;8.890;2024-02-21T00:00:05;17.50;91.50
26304;DHT22;70693;48.680;8.890;2024-02-21T00:02:31;17.50;91.50
26304;DHT22;70693;48.680;8.890;2024-02-21T00:04:56;17.40;91.50
26304;DHT22;70693;48.680;8.890;2024-02-21T00:07:22;17.50;91.50
26304;DHT22;70693;48.680;8.890;2024-02-21T00:09:48;17.50;91.50
26304;DHT22;70693;48.680;8.890;2024-02-21T00:12:14;17.50;91.50
26304;DHT22;70693;48.680;8.890;2024-02-21T00:14:40;17.40;91.50
26304;DHT22;70693;48.680;8.890;2024-02-21T00:17:06;17.40;91.50
26304;DHT22;70693;48.680;8.890;2024-02-21T00:19:31;17.40;91.50
26304;DHT22;70693;48.680;8.890;2024-02-21T00:21:57;17.40;91.50
26304;DHT22;70693;48.680;8.890;2024-02-21T00:24:22;17.40;91.50
26304;DHT22;70693;48.680;8.890;2024-02-21T00:26:48;17.40;91.50
26304;DHT22;70693;48.680;8.890;2024-02-21T00:29:14;17.40;91.50
26304;DHT22;70693;48.680;8.890;2024-02-21T00:31:39;17.40;91.50
26304;DHT22;70693;48.680;8.890;2024-02-21T00:34:05;17.40;91.50
26304;DHT22;70693;48.680;8.890;2024-02-21T00:36:31;17.40;91.50
26304;DHT22;70693;48.680;8.890;2024-02-21T00:38:56;17.40;91.50
26304;DHT22;70693;48.680;8.890;2024-02-21T00:41:22;17.40;91.50
26304;DHT22;70693;48.680;8.890;2024-02-21T00:43:47;17.40;91.50
26304;DHT22;70693;48.680;8.890;2024-02-21T00:46:15;17.30;91.50
26304;DHT22;70693;48.680;8.890;2024-02-21T00:48:41;17.40;91.60
26304;DHT22;70693;48.680;8.890;2024-02-21T00:51:06;17.40;91.60
26304;DHT22;70693;48.680;8.890;2024-02-21T00:53:32;17.30;91.50
26304;DHT22;70693;48.680;8.890;2024-02-21T00:55:57;17.30;91.50
26304;DHT22;70693;48.680;8.890;2024-02-21T00:58:23;17.30;91.50
26304;DHT22;70693;48.680;8.890;2024-02-21T01:00:49;17.30;91.50
26304;DHT22;70693;48.680;8.890;2024-02-21T01:03:14;17.30;91.50
26304;DHT22;70693;48.680;8.890;2024-02-21T01:05:40;17.30;91.50
26304;DHT22;70693;48.680;8.890;2024-02-21T01:08:06;17.30;91.50
26304;DHT22;70693;48.680;8.890;2024-02-21T01:10:31;17.30;91.50
26304;DHT22;70693;48.680;8.890;2024-02-21T01:12:57;17.30;91.50
26304;DHT22;70693;48.680;8.890;2024-02-21T01:15:24;17.30;91.50
26304;DHT22;70693;48.680;8.890;2024-02-21T01:17:49;17.30;91.50
26304;DHT22;70693;48.680;8.890;2024-02-21T01:20:20;17.30;91.50
26304;DHT22;70693;48.680;8.890;2024-02-21T01:22:46;17.30;91.50
26304;DHT22;70693;48.680;8.890;2024-02-21T01:25:11;17.30;91.50
26304;DHT22;70693;48.680;8.890;2024-02-21T01:27:37;17.30;91.60
26304;DHT22;70693;48.680;8.890;2024-02-21T01:30:03;17.30;91.60
26304;DHT22;70693;48.680;8.890;2024-02-21T01:32:28;17.30;91.60
26304;DHT22;70693;48.680;8.890;2024-02-21T01:34:54;17.30;91.60
26304;DHT22;70693;48.680;8.890;2024-02-21T01:37:20;17.30;91.60
26304;DHT22;70693;48.680;8.890;2024-02-21T01:39:45;17.30;91.60
26304;DHT22;70693;48.680;8.890;2024-02-21T01:42:11;17.20;91.60
26304;DHT22;70693;48.680;8.890;2024-02-21T01:44:36;17.20;91.60
26304;DHT22;70693;48.680;8.890;2024-02-21T01:47:03;17.20;91.60
26304;DHT22;70693;48.680;8.890;2024-02-21T01:49:29;17.20;91.60
26304;DHT22;70693;48.680;8.890;2024-02-21T01:51:55;17.20;91.60
26304;DHT22;70693;48.680;8.890;2024-02-21T01:54:21;17.20;91.60
26304;DHT22;70693;48.680;8.890;2024-02-21T01:56:47;17.20;91.70
26304;DHT22;70693;48.680;8.890;2024-02-21T01:59:15;17.20;91.70
26304;DHT22;70693;48.680;8.890;2024-02-21T02:01:41;17.20;91.70
26304;DHT22;70693;48.680;8.890;2024-02-21T02:04:07;17.20;91.70
26304;DHT22;70693;48.680;8.890;2024-02-21T02:06:34;17.20;91.70
26304;DHT22;70693;48.680;8.890;2024-02-21T02:09:00;17.20;91.70
26304;DHT22;70693;48.680;8.890;2024-02-21T02:11:26;17.20;91.70
26304;DHT22;70693;48.680;8.890;2024-02-21T02:13:51;17.20;91.70
26304;DHT22;70693;48.680;8.890;2024-02-21T02:16:17;17.20;91.70
26304;DHT22;70693;48.680;8.890;2024-02-21T02:18:42;17.20;91.70
26304;DHT22;70693;48.680;8.890;2024-02-21T02:21:21;17.20;91.70
26304;DHT22;70693;48.680;8.890;2024-02-21T02:23:48;17.20;91.70
26304;DHT22;70693;48.680;8.890;2024-02-21T02:26:14;17.20;91.70
26304;DHT22;70693;48.680;8.890;2024-02-21T02:28:40;17.20;91.70
26304;DHT22;70693;48.680;8.890;2024-02-21T02:31:06;17.20;91.70
26304;DHT22;70693;48.680;8.890;2024-02-21T02:33:31;17.20;91.70
26304;DHT22;70693;48.680;8.890;2024-02-21T02:35:57;17.20;91.70
26304;DHT22;70693;48.680;8.890;2024-02-21T02:38:24;17.10;91.70
26304;DHT22;70693;48.680;8.890;2024-02-21T02:40:49;17.10;91.60
26304;DHT22;70693;48.680;8.890;2024-02-21T02:43:15;17.20;91.70
26304;DHT22;70693;48.680;8.890;2024-02-21T02:45:40;17.20;91.70
26304;DHT22;70693;48.680;8.890;2024-02-21T02:48:06;17.10;91.60
26304;DHT22;70693;48.680;8.890;2024-02-21T02:50:32;17.10;91.70
26304;DHT22;70693;48.680;8.890;2024-02-21T02:52:58;17.10;91.80
26304;DHT22;70693;48.680;8.890;2024-02-21T02:55:23;17.20;91.70
26304;DHT22;70693;48.680;8.890;2024-02-21T02:57:49;17.10;91.70
26304;DHT22;70693;48.680;8.890;2024-02-21T03:00:15;17.10;91.70
26304;DHT22;70693;48.680;8.890;2024-02-21T03:02:42;17.10;91.70
26304;DHT22;70693;48.680;8.890;2024-02-21T03:05:13;17.10;91.70
26304;DHT22;70693;48.680;8.890;2024-02-21T03:07:40;17.10;92.10
26304;DHT22;70693;48.680;8.890;2024-02-21T03:10:06;17.10;91.70
26304;DHT22;70693;48.680;8.890;2024-02-21T03:12:32;17.10;91.70
26304;DHT22;70693;48.680;8.890;2024-02-21T03:14:57;17.10;91.70
26304;DHT22;70693;48.680;8.890;2024-02-21T03:17:23;17.20;91.80
26304;DHT22;70693;48.680;8.890;2024-02-21T03:19:49;17.20;91.80
26304;DHT22;70693;48.680;8.890;2024-02-21T03:22:15;17.20;91.80
26304;DHT22;70693;48.680;8.890;2024-02-21T03:24:42;17.10;91.70
26304;DHT22;70693;48.680;8.890;2024-02-21T03:27:08;17.10;91.70
26304;DHT22;70693;48.680;8.890;2024-02-21T03:29:33;17.10;91.80
26304;DHT22;70693;48.680;8.890;2024-02-21T03:31:59;17.10;91.70
26304;DHT22;70693;48.680;8.890;2024-02-21T03:34:25;17.20;91.70
26304;DHT22;70693;48.680;8.890;2024-02-21T03:36:50;17.10;91.70
26304;DHT22;70693;48.680;8.890;2024-02-21T03:39:16;17.10;91.70
26304;DHT22;70693;48.680;8.890;2024-02-21T03:41:41;17.10;91.70
26304;DHT22;70693;48.680;8.890;2024-02-21T03:44:07;17.10;91.70
26304;DHT22;70693;48.680;8.890;2024-02-21T03:46:33;17.10;91.70
26304;DHT22;70693;48.680;8.890;2024-02-21T03:48:58;17.10;91.70
26304;DHT22;70693;48.680;8.890;2024-02-21T03:51:26;17.10;91.80
26304;DHT22;70693;48.680;8.890;2024-02-21T03:53:51;17.10;91.70
26304;DHT22;70693;48.680;8.890;2024-02-21T03:56:17;17.10;91.80
26304;DHT22;70693;48.680;8.890;2024-02-21T03:58:43;17.10;91.80
26304;DHT22;70693;48.680;8.890;2024-02-21T04:01:08;17.10;91.80
26304;DHT22;70693;48.680;8.890;2024-02-21T04:03:34;17.10;91.80
26304;DHT22;70693;48.680;8.890;2024-02-21T04:06:00;17.10;91.80
26304;DHT22;70693;48.680;8.890;2024-02-21T04:08:26;17.10;91.80
26304;DHT22;70693;48.680;8.890;2024-02-21T04:10:51;17.00;91.80
26304;DHT22;70693;48.680;8.890;2024-02-21T04:13:17;17.10;91.80
26304;DHT22;70693;48.680;8.890;2024-02-21T04:15:43;17.10;91.80
26304;DHT22;70693;48.680;8.890;2024-02-21T04:18:08;17.10;91.80
26304;DHT22;70693;48.680;8.890;2024-02-21T04:20:34;17.10;91.80
26304;DHT22;70693;48.680;8.890;2024-02-21T04:23:01;17.10;91.80
26304;DHT22;70693;48.680;8.890;2024-02-21T04:25:26;17.00;91.80
26304;DHT22;70693;48.680;8.890;2024-02-21T04:27:52;17.10;91.80
26304;DHT22;70693;48.680;8.890;2024-02-21T04:30:18;17.10;91.80
26304;DHT22;70693;48.680;8.890;2024-02-21T04:32:43;17.10;91.80
26304;DHT22;70693;48.680;8.890;2024-02-21T04:35:09;17.10;91.80
26304;DHT22;70693;48.680;8.890;2024-02-21T04:37:34;17.10;91.80
26304;DHT22;70693;48.680;8.890;2024-02-21T04:40:00;17.00;91.80
26304;DHT22;70693;48.680;8.890;2024-02-21T04:42:26;17.10;91.80
26304;DHT22;70693;48.680;8.890;2024-02-21T04:44:52;17.10;91.80
26304;DHT22;70693;48.680;8.890;2024-02-21T04:47:18;17.00;91.80
26304;DHT22;70693;48.680;8.890;2024-02-21T04:49:45;17.10;91.80
26304;DHT22;70693;48.680;8.890;2024-02-21T04:52:11;17.00;91.80
26304;DHT22;70693;48.680;8.890;2024-02-21T04:54:37;17.00;91.80
26304;DHT22;70693;48.680;8.890;2024-02-21T04:57:03;17.00;91.80
26304;DHT22;70693;48.680;8.890;2024-02-21T04:59:28;17.00;91.80
26304;DHT22;70693;48.680;8.890;2024-02-21T05:01:55;17.00;91.80
26304;DHT22;70693;48.680;8.890;2024-02-21T05:04:20;17.00;91.80
26304;DHT22;70693;48.680;8.890;2024-02-21T05:06:46;17.00;91.80
26304;DHT22;70693;48.680;8.890;2024-02-21T05:09:11;17.00;91.80
26304;DHT22;70693;48.680;8.890;2024-02-21T05:11:37;17.00;91.80
26304;DHT22;70693;48.680;8.890;2024-02-21T05:14:04;17.00;91.80
26304;DHT22;70693;48.680;8.890;2024-02-21T05:16:32;17.00;91.80
26304;DHT22;70693;48.680;8.890;2024-02-21T05:18:58;17.00;91.80
26304;DHT22;70693;48.680;8.890;2024-02-21T05:21:24;17.00;91.70
26304;DHT22;70693;48.680;8.890;2024-02-21T05:23:50;17.00;91.70
26304;DHT22;70693;48.680;8.890;2024-02-21T05:26:23;17.00;91.70
26304;DHT22;70693;48.680;8.890;2024-02-21T05:28:49;17.00;91.70
26304;DHT22;70693;48.680;8.890;2024-02-21T05:31:19;17.00;91.70
26304;DHT22;70693;48.680;8.890;2024-02-21T05:33:45;17.00;91.70
26304;DHT22;70693;48.680;8.890;2024-02-21T05:36:11;17.00;91.70
26304;DHT22;70693;48.680;8.890;2024-02-21T05:38:37;17.00;91.70
26304;DHT22;70693;48.680;8.890;2024-02-21T05:41:03;17.00;91.70
26304;DHT22;70693;48.680;8.890;2024-02-21T05:43:29;17.00;91.70
26304;DHT22;70693;48.680;8.890;2024-02-21T05:45:55;17.00;90.80
26304;DHT22;70693;48.680;8.890;2024-02-21T05:48:22;16.90;90.40
26304;DHT22;70693;48.680;8.890;2024-02-21T05:50:48;16.90;90.30
26304;DHT22;70693;48.680;8.890;2024-02-21T05:53:15;16.90;90.30
26304;DHT22;70693;48.680;8.890;2024-02-21T05:55:41;16.90;90.40
26304;DHT22;70693;48.680;8.890;2024-02-21T05:58:07;16.90;90.50
26304;DHT22;70693;48.680;8.890;2024-02-21T06:00:33;16.90;90.60
26304;DHT22;70693;48.680;8.890;2024-02-21T06:02:59;16.90;90.70
26304;DHT22;70693;48.680;8.890;2024-02-21T06:05:24;16.90;90.70
26304;DHT22;70693;48.680;8.890;2024-02-21T06:07:50;16.90;90.70
26304;DHT22;70693;48.680;8.890;2024-02-21T06:10:16;16.90;90.80
26304;DHT22;70693;48.680;8.890;2024-02-21T06:12:42;16.90;90.80
26304;DHT22;70693;48.680;8.890;2024-02-21T06:15:08;16.90;91.10
26304;DHT22;70693;48.680;8.890;2024-02-21T06:17:34;16.90;90.80
26304;DHT22;70693;48.680;8.890;2024-02-21T06:20:00;16.90;90.90
26304;DHT22;70693;48.680;8.890;2024-02-21T06:22:25;16.90;90.90
26304;DHT22;70693;48.680;8.890;2024-02-21T06:24:51;16.90;90.90
26304;DHT22;70693;48.680;8.890;2024-02-21T06:27:16;16.90;90.90
26304;DHT22;70693;48.680;8.890;2024-02-21T06:29:43;16.90;90.90
26304;DHT22;70693;48.680;8.890;2024-02-21T06:32:09;16.90;90.90
26304;DHT22;70693;48.680;8.890;2024-02-21T06:34:35;16.90;90.90
26304;DHT22;70693;48.680;8.890;2024-02-21T06:37:00;16.90;90.90
26304;DHT22;70693;48.680;8.890;2024-02-21T06:39:26;16.90;90.90
26304;DHT22;70693;48.680;8.890;2024-02-21T06:41:54;16.90;91.00
26304;DHT22;70693;48.680;8.890;2024-02-21T06:44:20;16.90;91.00
26304;DHT22;70693;48.680;8.890;2024-02-21T06:46:46;16.90;91.00
26304;DHT22;70693;48.680;8.890;2024-02-21T06:49:12;16.90;91.00
26304;DHT22;70693;48.680;8.890;2024-02-21T06:51:44;16.90;91.00
26304;DHT22;70693;48.680;8.890;2024-02-21T06:54:10;16.90;91.10
26304;DHT22;70693;48.680;8.890;2024-02-21T06:56:37;16.90;91.10
26304;DHT22;70693;48.680;8.890;2024-02-21T06:59:03;16.90;91.10
26304;DHT22;70693;48.680;8.890;2024-02-21T07:01:29;16.90;91.10
26304;DHT22;70693;48.680;8.890;2024-02-21T07:03:55;16.90;91.10
26304;DHT22;70693;48.680;8.890;2024-02-21T07:06:21;16.90;91.10
26304;DHT22;70693;48.680;8.890;2024-02-21T07:08:47;16.80;91.10
26304;DHT22;70693;48.680;8.890;2024-02-21T07:11:13;16.90;91.20
26304;DHT22;70693;48.680;8.890;2024-02-21T07:13:38;16.90;91.20
26304;DHT22;70693;48.680;8.890;2024-02-21T07:16:04;16.90;91.20
26304;DHT22;70693;48.680;8.890;2024-02-21T07:18:30;16.80;91.20
26304;DHT22;70693;48.680;8.890;2024-02-21T07:20:56;16.90;91.20
26304;DHT22;70693;48.680;8.890;2024-02-21T07:23:22;16.90;91.20
26304;DHT22;70693;48.680;8.890;2024-02-21T07:25:48;16.90;91.20
26304;DHT22;70693;48.680;8.890;2024-02-21T07:28:14;16.90;90.50
26304;DHT22;70693;48.680;8.890;2024-02-21T07:30:40;16.80;90.00
26304;DHT22;70693;48.680;8.890;2024-02-21T07:33:06;16.80;89.90
26304;DHT22;70693;48.680;8.890;2024-02-21T07:35:32;16.80;90.00
26304;DHT22;70693;48.680;8.890;2024-02-21T07:37:58;16.70;90.00
26304;DHT22;70693;48.680;8.890;2024-02-21T07:40:24;16.70;90.00
26304;DHT22;70693;48.680;8.890;2024-02-21T07:42:49;16.70;90.10
26304;DHT22;70693;48.680;8.890;2024-02-21T07:45:15;16.70;90.20
26304;DHT22;70693;48.680;8.890;2024-02-21T07:47:41;16.70;90.20
26304;DHT22;70693;48.680;8.890;2024-02-21T07:50:07;16.70;90.30
26304;DHT22;70693;48.680;8.890;2024-02-21T07:52:33;16.80;90.30
26304;DHT22;70693;48.680;8.890;2024-02-21T07:54:58;16.80;90.40
26304;DHT22;70693;48.680;8.890;2024-02-21T07:57:24;16.80;90.40
26304;DHT22;70693;48.680;8.890;2024-02-21T07:59:50;16.80;90.40
26304;DHT22;70693;48.680;8.890;2024-02-21T08:02:16;16.80;90.50
26304;DHT22;70693;48.680;8.890;2024-02-21T08:04:42;16.90;90.50
26304;DHT22;70693;48.680;8.890;2024-02-21T08:07:09;16.90;90.50
26304;DHT22;70693;48.680;8.890;2024-02-21T08:09:35;16.90;90.60
26304;DHT22;70693;48.680;8.890;2024-02-21T08:12:02;16.90;90.60
26304;DHT22;70693;48.680;8.890;2024-02-21T08:14:27;16.90;90.60
26304;DHT22;70693;48.680;8.890;2024-02-21T08:16:53;16.90;90.60
26304;DHT22;70693;48.680;8.890;2024-02-21T08:19:20;16.90;90.60
26304;DHT22;70693;48.680;8.890;2024-02-21T08:21:46;16.90;90.60
26304;DHT22;70693;48.680;8.890;2024-02-21T08:24:15;17.00;90.60
26304;DHT22;70693;48.680;8.890;2024-02-21T08:26:44;17.00;90.70
26304;DHT22;70693;48.680;8.890;2024-02-21T08:29:12;17.00;90.70
26304;DHT22;70693;48.680;8.890;2024-02-21T08:31:38;17.00;90.70
26304;DHT22;70693;48.680;8.890;2024-02-21T08:34:04;17.00;90.70
26304;DHT22;70693;48.680;8.890;2024-02-21T08:36:30;17.00;90.70
26304;DHT22;70693;48.680;8.890;2024-02-21T08:38:56;17.10;90.70
26304;DHT22;70693;48.680;8.890;2024-02-21T08:41:23;17.10;90.70
26304;DHT22;70693;48.680;8.890;2024-02-21T08:43:50;17.10;90.70
26304;DHT22;70693;48.680;8.890;2024-02-21T08:46:16;17.20;90.70
26304;DHT22;70693;48.680;8.890;2024-02-21T08:48:43;17.20;90.70
26304;DHT22;70693;48.680;8.890;2024-02-21T08:51:11;17.20;90.70
26304;DHT22;70693;48.680;8.890;2024-02-21T08:53:37;17.20;90.70
26304;DHT22;70693;48.680;8.890;2024-02-21T08:56:03;17.20;91.00
26304;DHT22;70693;48.680;8.890;2024-02-21T08:58:29;17.20;90.60
26304;DHT22;70693;48.680;8.890;2024-02-21T09:00:56;17.30;90.60
26304;DHT22;70693;48.680;8.890;2024-02-21T09:03:22;17.30;90.60
26304;DHT22;70693;48.680;8.890;2024-02-21T09:05:48;17.30;90.70
26304;DHT22;70693;48.680;8.890;2024-02-21T09:08:14;17.20;90.70
26304;DHT22;70693;48.680;8.890;2024-02-21T09:10:40;17.20;90.70
26304;DHT22;70693;48.680;8.890;2024-02-21T09:13:05;17.20;90.70
26304;DHT22;70693;48.680;8.890;2024-02-21T09:15:33;17.20;90.70
26304;DHT22;70693;48.680;8.890;2024-02-21T09:17:58;17.20;90.70
26304;DHT22;70693;48.680;8.890;2024-02-21T09:20:24;17.30;90.70
26304;DHT22;70693;48.680;8.890;2024-02-21T09:22:49;17.30;90.80
26304;DHT22;70693;48.680;8.890;2024-02-21T09:25:15;17.30;90.80
26304;DHT22;70693;48.680;8.890;2024-02-21T09:27:43;17.30;90.70
26304;DHT22;70693;48.680;8.890;2024-02-21T09:30:09;17.30;90.70
26304;DHT22;70693;48.680;8.890;2024-02-21T09:32:35;17.30;90.70
26304;DHT22;70693;48.680;8.890;2024-02-21T09:35:01;17.30;90.80
26304;DHT22;70693;48.680;8.890;2024-02-21T09:37:27;17.30;90.70
26304;DHT22;70693;48.680;8.890;2024-02-21T09:39:53;17.40;90.80
26304;DHT22;70693;48.680;8.890;2024-02-21T09:42:20;17.40;90.70
26304;DHT22;70693;48.680;8.890;2024-02-21T09:44:47;17.50;90.70
26304;DHT22;70693;48.680;8.890;2024-02-21T09:47:22;17.50;90.60
26304;DHT22;70693;48.680;8.890;2024-02-21T09:49:48;17.60;90.60
26304;DHT22;70693;48.680;8.890;2024-02-21T09:52:15;17.60;90.50
26304;DHT22;70693;48.680;8.890;2024-02-21T09:54:41;17.70;90.50
26304;DHT22;70693;48.680;8.890;2024-02-21T09:57:10;17.70;90.40
26304;DHT22;70693;48.680;8.890;2024-02-21T09:59:37;17.80;90.40
26304;DHT22;70693;48.680;8.890;2024-02-21T10:02:03;17.90;90.40
26304;DHT22;70693;48.680;8.890;2024-02-21T10:04:29;17.90;90.30
26304;DHT22;70693;48.680;8.890;2024-02-21T10:06:55;18.00;90.30
26304;DHT22;70693;48.680;8.890;2024-02-21T10:09:25;18.00;90.30
26304;DHT22;70693;48.680;8.890;2024-02-21T10:11:55;18.10;90.20
26304;DHT22;70693;48.680;8.890;2024-02-21T10:14:20;18.10;90.20
26304;DHT22;70693;48.680;8.890;2024-02-21T10:16:48;18.20;90.20
26304;DHT22;70693;48.680;8.890;2024-02-21T10:19:20;18.20;90.10
26304;DHT22;70693;48.680;8.890;2024-02-21T10:24:33;18.30;90.00
26304;DHT22;70693;48.680;8.890;2024-02-21T10:27:03;18.30;90.00
26304;DHT22;70693;48.680;8.890;2024-02-21T10:29:32;18.40;90.00
26304;DHT22;70693;48.680;8.890;2024-02-21T10:32:12;18.40;89.90
26304;DHT22;70693;48.680;8.890;2024-02-21T10:34:39;18.50;89.90
26304;DHT22;70693;48.680;8.890;2024-02-21T10:37:06;18.50;89.80
26304;DHT22;70693;48.680;8.890;2024-02-21T10:39:33;18.50;89.70
26304;DHT22;70693;48.680;8.890;2024-02-21T10:42:01;18.50;90.10
26304;DHT22;70693;48.680;8.890;2024-02-21T10:44:31;18.60;89.50
26304;DHT22;70693;48.680;8.890;2024-02-21T10:46:58;18.70;89.40
26304;DHT22;70693;48.680;8.890;2024-02-21T10:49:25;18.70;89.30
26304;DHT22;70693;48.680;8.890;2024-02-21T10:51:54;18.70;89.20
26304;DHT22;70693;48.680;8.890;2024-02-21T10:54:30;18.80;89.20
26304;DHT22;70693;48.680;8.890;2024-02-21T10:56:58;18.80;89.10
26304;DHT22;70693;48.680;8.890;2024-02-21T10:59:27;18.90;89.00
26304;DHT22;70693;48.680;8.890;2024-02-21T11:01:54;18.90;88.90
26304;DHT22;70693;48.680;8.890;2024-02-21T11:04:20;18.90;88.80
26304;DHT22;70693;48.680;8.890;2024-02-21T11:06:46;18.90;88.70
26304;DHT22;70693;48.680;8.890;2024-02-21T11:09:12;18.90;88.70
26304;DHT22;70693;48.680;8.890;2024-02-21T11:11:40;19.00;88.60
26304;DHT22;70693;48.680;8.890;2024-02-21T11:16:39;19.00;88.50
26304;DHT22;70693;48.680;8.890;2024-02-21T11:19:09;19.00;88.40
26304;DHT22;70693;48.680;8.890;2024-02-21T11:21:37;19.00;88.40
26304;DHT22;70693;48.680;8.890;2024-02-21T11:24:04;19.00;88.40
26304;DHT22;70693;48.680;8.890;2024-02-21T11:26:30;19.00;88.40
26304;DHT22;70693;48.680;8.890;2024-02-21T11:29:00;19.00;88.30
26304;DHT22;70693;48.680;8.890;2024-02-21T11:31:27;19.00;88.40
26304;DHT22;70693;48.680;8.890;2024-02-21T11:33:53;19.00;88.40
26304;DHT22;70693;48.680;8.890;2024-02-21T11:36:25;19.00;88.30
26304;DHT22;70693;48.680;8.890;2024-02-21T11:38:52;19.00;88.30
26304;DHT22;70693;48.680;8.890;2024-02-21T11:41:21;19.00;88.30
26304;DHT22;70693;48.680;8.890;2024-02-21T11:43:48;19.00;88.30
26304;DHT22;70693;48.680;8.890;2024-02-21T11:46:14;19.00;88.30
26304;DHT22;70693;48.680;8.890;2024-02-21T11:48:41;19.00;88.20
26304;DHT22;70693;48.680;8.890;2024-02-21T11:51:09;19.10;88.30
26304;DHT22;70693;48.680;8.890;2024-02-21T11:53:35;19.10;88.20
26304;DHT22;70693;48.680;8.890;2024-02-21T11:56:01;19.10;88.70
26304;DHT22;70693;48.680;8.890;2024-02-21T11:58:26;19.20;88.00
26304;DHT22;70693;48.680;8.890;2024-02-21T12:00:52;19.20;87.80
26304;DHT22;70693;48.680;8.890;2024-02-21T12:03:18;19.30;87.80
26304;DHT22;70693;48.680;8.890;2024-02-21T12:05:44;19.20;87.70
26304;DHT22;70693;48.680;8.890;2024-02-21T12:08:12;19.20;87.60
26304;DHT22;70693;48.680;8.890;2024-02-21T12:10:37;19.30;87.70
26304;DHT22;70693;48.680;8.890;2024-02-21T12:13:09;19.30;87.60
26304;DHT22;70693;48.680;8.890;2024-02-21T12:15:34;19.30;87.50
26304;DHT22;70693;48.680;8.890;2024-02-21T12:18:00;19.30;87.50
26304;DHT22;70693;48.680;8.890;2024-02-21T12:20:26;19.40;87.60
26304;DHT22;70693;48.680;8.890;2024-02-21T12:22:52;19.30;87.40
26304;DHT22;70693;48.680;8.890;2024-02-21T12:25:21;19.30;87.40
26304;DHT22;70693;48.680;8.890;2024-02-21T12:27:52;19.30;87.40
26304;DHT22;70693;48.680;8.890;2024-02-21T12:30:18;19.40;87.30
26304;DHT22;70693;48.680;8.890;2024-02-21T12:32:45;19.40;86.30
26304;DHT22;70693;48.680;8.890;2024-02-21T12:35:11;19.30;85.80
26304;DHT22;70693;48.680;8.890;2024-02-21T12:37:37;19.30;85.50
26304;DHT22;70693;48.680;8.890;2024-02-21T12:40:08;19.30;85.40
26304;DHT22;70693;48.680;8.890;2024-02-21T12:42:34;19.30;85.40
26304;DHT22;70693;48.680;8.890;2024-02-21T12:45:00;19.20;85.30
26304;DHT22;70693;48.680;8.890;2024-02-21T12:47:26;19.20;85.40
26304;DHT22;70693;48.680;8.890;2024-02-21T12:49:52;19.20;86.20
26304;DHT22;70693;48.680;8.890;2024-02-21T12:52:18;19.20;85.50
26304;DHT22;70693;48.680;8.890;2024-02-21T12:54:44;19.20;85.60
26304;DHT22;70693;48.680;8.890;2024-02-21T12:57:10;19.30;85.80
26304;DHT22;70693;48.680;8.890;2024-02-21T12:59:35;19.20;85.70
26304;DHT22;70693;48.680;8.890;2024-02-21T13:02:01;19.20;85.80
26304;DHT22;70693;48.680;8.890;2024-02-21T13:04:27;19.20;85.80
26304;DHT22;70693;48.680;8.890;2024-02-21T13:06:52;19.20;85.90
26304;DHT22;70693;48.680;8.890;2024-02-21T13:09:18;19.30;86.00
26304;DHT22;70693;48.680;8.890;2024-02-21T13:11:44;19.30;86.00
26304;DHT22;70693;48.680;8.890;2024-02-21T13:14:11;19.30;86.70
26304;DHT22;70693;48.680;8.890;2024-02-21T13:16:37;19.30;86.00
26304;DHT22;70693;48.680;8.890;2024-02-21T13:19:06;19.30;86.10
26304;DHT22;70693;48.680;8.890;2024-02-21T13:21:36;19.20;86.00
26304;DHT22;70693;48.680;8.890;2024-02-21T13:24:02;19.20;86.10
26304;DHT22;70693;48.680;8.890;2024-02-21T13:26:28;19.20;86.20
26304;DHT22;70693;48.680;8.890;2024-02-21T13:29:00;19.20;86.20
26304;DHT22;70693;48.680;8.890;2024-02-21T13:31:26;19.20;86.20
26304;DHT22;70693;48.680;8.890;2024-02-21T13:33:52;19.20;86.20
26304;DHT22;70693;48.680;8.890;2024-02-21T13:36:18;19.20;86.30
26304;DHT22;70693;48.680;8.890;2024-02-21T13:38:44;19.20;86.30
26304;DHT22;70693;48.680;8.890;2024-02-21T13:41:10;19.20;86.30
26304;DHT22;70693;48.680;8.890;2024-02-21T13:43:36;19.10;86.30
26304;DHT22;70693;48.680;8.890;2024-02-21T13:46:02;19.10;86.30
26304;DHT22;70693;48.680;8.890;2024-02-21T13:48:35;19.10;86.30
26304;DHT22;70693;48.680;8.890;2024-02-21T13:51:01;19.10;86.30
26304;DHT22;70693;48.680;8.890;2024-02-21T13:53:28;19.10;86.30
26304;DHT22;70693;48.680;8.890;2024-02-21T13:55:53;19.10;86.40
26304;DHT22;70693;48.680;8.890;2024-02-21T13:58:19;19.10;86.40
26304;DHT22;70693;48.680;8.890;2024-02-21T14:00:45;19.00;86.40
26304;DHT22;70693;48.680;8.890;2024-02-21T14:03:11;19.00;86.40
26304;DHT22;70693;48.680;8.890;2024-02-21T14:05:37;19.10;86.50
26304;DHT22;70693;48.680;8.890;2024-02-21T14:08:02;19.00;86.40
26304;DHT22;70693;48.680;8.890;2024-02-21T14:10:28;19.00;86.50
26304;DHT22;70693;48.680;8.890;2024-02-21T14:12:54;19.00;86.50
26304;DHT22;70693;48.680;8.890;2024-02-21T14:15:20;18.90;86.50
26304;DHT22;70693;48.680;8.890;2024-02-21T14:17:46;19.00;86.60
26304;DHT22;70693;48.680;8.890;2024-02-21T14:20:12;19.00;86.60
26304;DHT22;70693;48.680;8.890;2024-02-21T14:22:39;18.90;86.70
26304;DHT22;70693;48.680;8.890;2024-02-21T14:25:05;18.90;86.70
26304;DHT22;70693;48.680;8.890;2024-02-21T14:27:31;18.90;86.80
26304;DHT22;70693;48.680;8.890;2024-02-21T14:29:57;18.90;86.80
26304;DHT22;70693;48.680;8.890;2024-02-21T14:32:23;18.90;86.90
26304;DHT22;70693;48.680;8.890;2024-02-21T14:34:49;18.80;86.90
26304;DHT22;70693;48.680;8.890;2024-02-21T14:37:15;18.80;87.00
26304;DHT22;70693;48.680;8.890;2024-02-21T14:39:41;18.80;87.10
26304;DHT22;70693;48.680;8.890;2024-02-21T14:42:07;18.70;87.10
26304;DHT22;70693;48.680;8.890;2024-02-21T14:44:35;18.70;87.20
26304;DHT22;70693;48.680;8.890;2024-02-21T14:47:01;18.70;87.20
26304;DHT22;70693;48.680;8.890;2024-02-21T14:49:26;18.70;87.40
26304;DHT22;70693;48.680;8.890;2024-02-21T14:51:54;18.60;87.30
26304;DHT22;70693;48.680;8.890;2024-02-21T14:54:20;18.60;87.50
26304;DHT22;70693;48.680;8.890;2024-02-21T14:56:45;18.50;87.50
26304;DHT22;70693;48.680;8.890;2024-02-21T14:59:12;18.60;87.70
26304;DHT22;70693;48.680;8.890;2024-02-21T15:01:38;18.50;87.60
26304;DHT22;70693;48.680;8.890;2024-02-21T15:04:04;18.50;87.80
26304;DHT22;70693;48.680;8.890;2024-02-21T15:06:30;18.40;87.80
26304;DHT22;70693;48.680;8.890;2024-02-21T15:08:57;18.40;87.90
26304;DHT22;70693;48.680;8.890;2024-02-21T15:11:23;18.40;87.90
26304;DHT22;70693;48.680;8.890;2024-02-21T15:13:49;18.40;88.00
26304;DHT22;70693;48.680;8.890;2024-02-21T15:16:14;18.30;88.00
26304;DHT22;70693;48.680;8.890;2024-02-21T15:18:41;18.30;88.10
26304;DHT22;70693;48.680;8.890;2024-02-21T15:21:07;18.20;88.10
26304;DHT22;70693;48.680;8.890;2024-02-21T15:23:36;18.30;88.30
26304;DHT22;70693;48.680;8.890;2024-02-21T15:26:01;18.20;88.40
26304;DHT22;70693;48.680;8.890;2024-02-21T15:28:27;18.10;89.20